KNTD

Point Mugu NAS (Naval Base Ventura Co) Airport

Oxnard, California, USA
METAR KNTD 190656Z 34003KT 9SM SCT009 BKN011 16/13 A3005 RMK AO2 SLP176 T01560133 $
Observed Flight Rules
Jan-19 @ 06:56 UTC (16 minutes ago) Marginal Visual Flight Rules
Wind Visibility Clouds
340° at 3 knots 9 miles
  • Scattered at 900' AGL
  • Broken at 1,100' AGL
Temperatures Readings
Current 16°C / 61°F
Dewpoint 13°C / 55°F
Humidity 83%
Altimeter 30.05" Hg
Pressure 1017.6 hPa
Elevation 4
METAR KNTD 190656Z 34003KT 9SM SCT009 BKN011 16/13 A3005 RMK AO2 SLP176 T01560133 $
Observed Flight Rules
Jan-19 @ 06:56 UTC
(16 minutes ago)
MVFR
Wind Visibility
340° at 3 knots 9 miles
Clouds
  • Scattered at 900' AGL
  • Broken at 1,100' AGL
Temperature Dewpoint
16°C / 61°F 13°C / 55°F
Humidity Altimeter Pressure
83% 30.05" Hg 1017.6 hPa